Time;durP1;ratioP1;P1;durP2;ratioP2;P2;SDS_P1;SDS_P2;PMS_P1;PMS_P2;Temp;Humidity;BMP_temperature;BMP_pressure;BME280_temperature;BME280_humidity;BME280_pressure;Samples;Min_cycle;Max_cycle;Signal;HPM_P1;HPM_P2
2021/06/24 00:00:58;;;;;;;8.60;5.72;;;20.40;99.90;;;;;;5035139;28;20069;-72
2021/06/24 00:03:31;;;;;;;6.75;5.22;;;20.30;99.90;;;;;;5033880;28;20033;-72
2021/06/24 00:05:59;;;;;;;8.60;6.18;;;20.40;99.90;;;;;;5034249;28;20026;-71
2021/06/24 00:08:25;;;;;;;9.88;5.97;;;20.40;99.90;;;;;;5035288;28;20108;-72
2021/06/24 00:10:54;;;;;;;9.15;5.75;;;20.50;99.90;;;;;;5017111;28;20438;-72
2021/06/24 00:13:21;;;;;;;8.50;5.72;;;20.40;99.90;;;;;;5035156;28;20029;-72
2021/06/24 00:15:47;;;;;;;11.57;6.10;;;20.50;99.90;;;;;;5034849;28;20033;-71
2021/06/24 00:18:15;;;;;;;8.90;5.80;;;20.50;99.90;;;;;;5034143;28;20030;-71
2021/06/24 00:20:42;;;;;;;9.23;5.40;;;20.50;99.90;;;;;;5032293;28;20034;-71
2021/06/24 00:23:09;;;;;;;9.52;5.70;;;20.60;99.90;;;;;;5034935;28;20060;-71
2021/06/24 00:25:35;;;;;;;9.80;5.30;;;20.60;99.90;;;;;;5033567;28;20029;-71
2021/06/24 00:28:01;;;;;;;10.60;6.03;;;20.60;99.90;;;;;;5035015;28;20040;-71
2021/06/24 00:30:27;;;;;;;8.65;5.30;;;20.60;99.90;;;;;;5034958;28;20072;-71
2021/06/24 00:32:53;;;;;;;7.85;5.50;;;20.50;99.90;;;;;;5033479;28;20586;-71
2021/06/24 00:35:19;;;;;;;12.15;6.05;;;20.50;99.90;;;;;;5034868;28;20132;-71
2021/06/24 00:37:45;;;;;;;11.63;6.10;;;20.50;99.90;;;;;;5033292;28;20512;-71
2021/06/24 00:40:13;;;;;;;6.70;5.82;;;20.60;99.90;;;;;;5034777;28;20048;-71
2021/06/24 00:42:41;;;;;;;9.57;5.38;;;20.60;99.90;;;;;;5033323;28;20045;-71
2021/06/24 00:45:09;;;;;;;7.38;5.28;;;20.50;99.90;;;;;;5033182;28;20045;-71
2021/06/24 00:47:35;;;;;;;8.73;5.68;;;20.50;99.90;;;;;;5034643;28;20095;-72
2021/06/24 00:50:02;;;;;;;7.15;5.03;;;20.30;99.90;;;;;;5033226;28;20034;-71
2021/06/24 00:52:28;;;;;;;17.48;6.53;;;20.20;99.90;;;;;;5033216;28;20135;-72
2021/06/24 00:54:55;;;;;;;6.10;4.93;;;20.30;99.90;;;;;;5034208;28;20502;-72
2021/06/24 00:57:22;;;;;;;6.85;5.25;;;20.30;99.90;;;;;;5034455;28;20037;-72
2021/06/24 00:59:48;;;;;;;9.52;5.97;;;20.10;99.90;;;;;;5016398;28;20125;-72
2021/06/24 01:02:13;;;;;;;6.70;5.28;;;20.10;99.90;;;;;;5034461;28;20116;-72
2021/06/24 01:04:39;;;;;;;9.63;5.70;;;20.10;99.90;;;;;;5033755;28;20071;-71
2021/06/24 01:07:06;;;;;;;9.55;5.80;;;20.10;99.90;;;;;;5016392;28;20071;-72
2021/06/24 01:09:33;;;;;;;8.68;5.55;;;20.00;99.90;;;;;;5033987;28;20034;-71
2021/06/24 01:12:10;;;;;;;9.45;5.72;;;20.30;99.90;;;;;;5016040;28;20025;-72
2021/06/24 01:14:37;;;;;;;9.18;5.38;;;20.30;99.90;;;;;;5033149;28;20061;-72
2021/06/24 01:17:03;;;;;;;9.15;5.47;;;20.30;99.90;;;;;;5034143;28;20470;-72
2021/06/24 01:19:30;;;;;;;11.23;5.60;;;20.30;99.90;;;;;;5034136;28;20120;-71
2021/06/24 01:21:56;;;;;;;10.00;5.75;;;20.30;99.90;;;;;;5015968;28;20029;-72
2021/06/24 01:24:23;;;;;;;10.98;5.78;;;20.10;99.90;;;;;;5016508;28;20025;-72
2021/06/24 01:26:49;;;;;;;11.63;6.10;;;20.20;99.90;;;;;;5033535;28;20091;-71
2021/06/24 01:29:15;;;;;;;8.43;5.47;;;20.00;99.90;;;;;;5033669;28;20437;-71
2021/06/24 01:31:41;;;;;;;7.93;5.30;;;20.00;99.90;;;;;;5032107;28;20033;-71
2021/06/24 01:34:10;;;;;;;11.85;5.15;;;20.10;99.90;;;;;;5033534;28;20037;-71
2021/06/24 01:36:37;;;;;;;7.72;5.05;;;20.30;99.90;;;;;;5032302;28;20033;-71
2021/06/24 01:39:08;;;;;;;9.32;5.35;;;20.00;99.90;;;;;;5032158;28;20454;-71
2021/06/24 01:41:34;;;;;;;7.97;5.30;;;19.90;99.90;;;;;;5032308;28;20406;-71
2021/06/24 01:44:00;;;;;;;8.55;6.07;;;20.20;99.90;;;;;;5033169;28;20049;-71
2021/06/24 01:46:25;;;;;;;12.73;6.25;;;20.20;99.90;;;;;;5032397;28;20080;-70
2021/06/24 01:48:52;;;;;;;10.13;5.90;;;20.10;99.90;;;;;;5031945;28;20033;-71
2021/06/24 01:51:18;;;;;;;8.98;5.85;;;20.00;99.90;;;;;;5033250;28;20033;-71
2021/06/24 01:53:43;;;;;;;8.57;6.97;;;19.90;99.90;;;;;;5032028;28;20087;-71
2021/06/24 01:56:09;;;;;;;10.38;6.28;;;19.70;99.90;;;;;;5032139;28;20033;-71
2021/06/24 01:58:36;;;;;;;10.35;7.30;;;19.80;99.90;;;;;;5033602;28;20368;-71
2021/06/24 02:01:03;;;;;;;8.95;6.22;;;19.60;99.90;;;;;;5031613;28;20056;-71
2021/06/24 02:03:37;;;;;;;10.93;7.05;;;19.60;99.90;;;;;;5033091;28;20076;-71
2021/06/24 02:06:05;;;;;;;9.77;6.60;;;19.60;99.90;;;;;;5033207;28;20112;-71
2021/06/24 02:08:35;;;;;;;8.82;6.20;;;19.50;99.90;;;;;;5032784;28;20030;-71
2021/06/24 02:11:02;;;;;;;16.05;9.15;;;19.30;99.90;;;;;;5031613;28;20414;-71
2021/06/24 02:13:28;;;;;;;14.20;9.40;;;19.20;99.90;;;;;;5033081;28;20097;-71
2021/06/24 02:15:54;;;;;;;12.68;7.13;;;19.00;99.90;;;;;;5031476;28;20045;-71
2021/06/24 02:18:20;;;;;;;12.13;6.43;;;19.20;99.90;;;;;;5031579;28;20052;-71
2021/06/24 02:20:46;;;;;;;10.85;7.78;;;19.20;99.90;;;;;;5032460;28;20491;-71
2021/06/24 02:23:11;;;;;;;11.73;7.72;;;19.20;99.90;;;;;;5032535;28;20116;-71
2021/06/24 02:25:37;;;;;;;13.93;7.75;;;19.00;99.90;;;;;;5032699;28;20379;-72
2021/06/24 02:28:05;;;;;;;11.45;7.80;;;18.90;99.90;;;;;;5031336;28;20041;-72
2021/06/24 02:30:31;;;;;;;11.80;8.23;;;18.90;99.90;;;;;;5031406;28;20040;-71
2021/06/24 02:32:57;;;;;;;12.10;7.97;;;18.90;99.90;;;;;;5032364;28;20034;-72
2021/06/24 02:35:25;;;;;;;10.25;7.30;;;19.00;99.90;;;;;;5031630;28;20091;-71
2021/06/24 02:37:54;;;;;;;12.50;9.80;;;18.90;99.90;;;;;;5031088;28;20033;-72
2021/06/24 02:40:21;;;;;;;10.77;8.35;;;18.70;99.90;;;;;;5032360;28;20498;-72
2021/06/24 02:42:47;;;;;;;11.55;8.65;;;18.70;99.90;;;;;;5031827;28;20421;-72
2021/06/24 02:45:13;;;;;;;12.38;8.05;;;18.90;99.90;;;;;;5031247;28;20478;-72
2021/06/24 02:47:39;;;;;;;12.85;8.10;;;18.70;99.90;;;;;;5032263;28;20094;-72
2021/06/24 02:50:09;;;;;;;12.73;8.32;;;18.90;99.90;;;;;;5030902;28;20030;-72
2021/06/24 02:52:35;;;;;;;14.05;9.23;;;18.70;99.90;;;;;;5032213;28;20043;-72
2021/06/24 02:55:01;;;;;;;13.70;9.07;;;18.70;99.90;;;;;;5031089;28;20116;-72
2021/06/24 02:57:27;;;;;;;11.07;8.93;;;18.80;99.90;;;;;;5030913;28;20026;-72
2021/06/24 02:59:53;;;;;;;10.50;8.18;;;18.70;99.90;;;;;;5032113;28;20052;-72
2021/06/24 03:02:19;;;;;;;10.90;8.63;;;18.80;99.90;;;;;;5032090;28;20398;-72
2021/06/24 03:04:45;;;;;;;9.68;7.25;;;18.70;99.90;;;;;;5030836;28;20077;-72
2021/06/24 03:07:11;;;;;;;13.75;7.78;;;18.70;99.90;;;;;;5032172;28;20084;-72
2021/06/24 03:09:37;;;;;;;15.52;9.27;;;18.50;99.90;;;;;;5032300;28;20439;-72
2021/06/24 03:12:04;;;;;;;15.38;10.30;;;18.30;99.90;;;;;;5031095;28;20029;-72
2021/06/24 03:14:30;;;;;;;16.45;9.57;;;18.30;99.90;;;;;;5014674;28;20045;-72
2021/06/24 03:16:56;;;;;;;15.13;9.88;;;18.30;99.90;;;;;;5031914;28;20034;-72
2021/06/24 03:19:21;;;;;;;11.30;9.55;;;18.30;99.90;;;;;;5032051;28;20094;-72
2021/06/24 03:21:47;;;;;;;13.85;9.70;;;18.40;99.90;;;;;;5032078;28;20030;-72
2021/06/24 03:24:13;;;;;;;11.20;9.18;;;18.50;99.90;;;;;;5032016;28;20497;-72
2021/06/24 03:26:39;;;;;;;12.48;9.70;;;18.70;99.90;;;;;;5030898;28;20457;-72
2021/06/24 03:29:05;;;;;;;14.73;9.55;;;18.70;99.90;;;;;;5031582;28;20029;-72
2021/06/24 03:31:32;;;;;;;13.23;9.60;;;18.60;99.90;;;;;;5031942;28;20113;-72
2021/06/24 03:33:58;;;;;;;13.55;9.35;;;18.60;99.90;;;;;;5031986;28;20038;-72
2021/06/24 03:36:24;;;;;;;14.13;10.60;;;18.70;99.90;;;;;;5032129;28;20112;-72
2021/06/24 03:38:50;;;;;;;13.45;10.57;;;18.60;99.90;;;;;;5031699;28;20120;-72
2021/06/24 03:41:23;;;;;;;13.98;10.07;;;18.60;99.90;;;;;;5031838;28;20359;-72
2021/06/24 03:43:50;;;;;;;15.15;11.88;;;18.50;99.90;;;;;;5031753;28;20044;-72
2021/06/24 03:46:16;;;;;;;17.35;10.88;;;18.50;99.90;;;;;;5014328;28;20096;-72
2021/06/24 03:48:41;;;;;;;12.73;9.57;;;18.60;99.90;;;;;;5010881;28;20583;-70
2021/06/24 03:51:07;;;;;;;13.98;9.15;;;18.60;99.90;;;;;;5014087;28;20048;-71
2021/06/24 03:53:34;;;;;;;14.45;9.32;;;18.70;99.90;;;;;;5013243;28;20133;-64
2021/06/24 03:56:03;;;;;;;9.60;8.20;;;18.80;99.90;;;;;;5033783;28;20051;-63
2021/06/24 03:58:29;;;;;;;8.80;7.32;;;18.90;99.90;;;;;;5035588;28;20386;-63
2021/06/24 04:00:54;;;;;;;12.15;7.32;;;19.30;99.90;;;;;;5032257;28;20029;-63
2021/06/24 04:03:20;;;;;;;11.20;6.85;;;19.50;99.90;;;;;;5034890;28;20136;-63
2021/06/24 04:05:46;;;;;;;11.23;7.47;;;19.90;99.90;;;;;;5035438;28;20068;-63
2021/06/24 04:08:12;;;;;;;10.95;7.15;;;20.00;99.90;;;;;;5017257;28;20030;-63
2021/06/24 04:10:38;;;;;;;10.73;7.63;;;20.30;99.90;;;;;;5035278;28;20033;-64
2021/06/24 04:13:05;;;;;;;12.63;6.63;;;20.50;99.90;;;;;;5034818;28;20033;-63
2021/06/24 04:15:32;;;;;;;12.05;6.43;;;20.70;99.90;;;;;;5035342;28;20041;-63
2021/06/24 04:18:02;;;;;;;9.10;6.32;;;20.80;99.90;;;;;;5033938;28;20044;-64
2021/06/24 04:20:30;;;;;;;8.57;6.05;;;20.80;99.90;;;;;;5035215;28;20112;-64
2021/06/24 04:22:56;;;;;;;7.43;5.80;;;20.70;99.90;;;;;;5034712;28;20061;-64
2021/06/24 04:25:22;;;;;;;13.02;7.55;;;20.60;99.90;;;;;;5033448;28;20385;-64
2021/06/24 04:27:49;;;;;;;9.50;6.53;;;20.40;99.90;;;;;;5034922;28;20470;-64
2021/06/24 04:30:16;;;;;;;8.77;7.30;;;20.20;99.90;;;;;;5034791;28;20040;-63
2021/06/24 04:32:43;;;;;;;11.48;8.48;;;19.90;99.90;;;;;;5033698;28;20059;-64
2021/06/24 04:35:10;;;;;;;11.07;8.02;;;19.80;99.90;;;;;;5034649;28;20539;-64
2021/06/24 04:37:37;;;;;;;10.65;8.35;;;19.60;99.90;;;;;;5033655;28;20025;-63
2021/06/24 04:40:07;;;;;;;10.23;8.35;;;19.60;99.90;;;;;;5032943;28;20044;-64
2021/06/24 04:42:33;;;;;;;13.85;7.72;;;19.60;99.90;;;;;;5033582;28;20040;-71
2021/06/24 04:44:59;;;;;;;11.07;8.15;;;19.60;99.90;;;;;;5033007;28;20034;-70
2021/06/24 04:47:24;;;;;;;12.20;8.93;;;19.50;99.90;;;;;;5032857;28;20025;-71
2021/06/24 04:49:50;;;;;;;12.73;8.90;;;19.30;99.90;;;;;;5016572;28;20116;-72
2021/06/24 04:52:16;;;;;;;13.15;8.65;;;19.30;99.90;;;;;;5034420;28;20043;-72
2021/06/24 04:54:43;;;;;;;12.27;9.25;;;19.20;99.90;;;;;;5034109;28;20040;-72
2021/06/24 04:57:09;;;;;;;11.88;8.90;;;19.20;99.90;;;;;;5034250;28;20022;-72
2021/06/24 04:59:35;;;;;;;11.70;8.98;;;19.30;99.90;;;;;;5033141;28;20071;-72
2021/06/24 05:02:01;;;;;;;12.02;9.48;;;19.30;99.90;;;;;;5032728;28;20033;-72
2021/06/24 05:04:26;;;;;;;14.52;9.05;;;19.10;99.90;;;;;;5033852;28;20096;-71
2021/06/24 05:06:55;;;;;;;14.50;10.15;;;19.10;99.90;;;;;;5033265;28;20548;-71
2021/06/24 05:09:30;;;;;;;15.93;9.63;;;19.00;99.90;;;;;;5033530;28;20029;-71
2021/06/24 05:11:56;;;;;;;13.35;9.57;;;19.10;99.90;;;;;;5033707;28;20482;-71
2021/06/24 05:14:22;;;;;;;13.55;9.63;;;19.10;99.90;;;;;;5032897;28;20030;-70
2021/06/24 05:16:48;;;;;;;11.98;8.82;;;19.10;99.90;;;;;;5024981;28;20096;-72
2021/06/24 05:19:14;;;;;;;9.93;8.38;;;19.10;99.90;;;;;;5013853;28;20048;-72
2021/06/24 05:21:41;;;;;;;12.45;8.63;;;19.20;99.90;;;;;;5013892;28;20038;-71
2021/06/24 05:24:09;;;;;;;12.30;8.98;;;19.20;99.90;;;;;;5013635;28;20084;-71
2021/06/24 05:26:35;;;;;;;10.05;8.48;;;19.10;99.90;;;;;;5014068;28;20030;-71
2021/06/24 05:29:02;;;;;;;11.70;8.63;;;19.10;99.90;;;;;;4996092;28;20087;-71
2021/06/24 05:31:27;;;;;;;13.50;7.88;;;19.10;99.90;;;;;;5013511;28;20383;-67
2021/06/24 05:33:53;;;;;;;12.60;8.38;;;19.20;99.90;;;;;;5013763;28;20037;-66
2021/06/24 05:36:19;;;;;;;10.55;7.28;;;19.50;99.90;;;;;;5022436;28;20115;-68
2021/06/24 05:38:51;;;;;;;10.60;7.32;;;19.80;99.90;;;;;;5028047;28;20037;-67
2021/06/24 05:41:17;;;;;;;10.38;6.63;;;20.00;99.90;;;;;;5033167;28;20029;-66
2021/06/24 05:43:42;;;;;;;7.75;6.53;;;20.10;99.90;;;;;;5033333;28;20047;-68
2021/06/24 05:46:08;;;;;;;8.73;6.80;;;20.10;99.90;;;;;;5031951;28;20030;-68
2021/06/24 05:48:34;;;;;;;11.73;7.65;;;20.20;99.90;;;;;;5016220;28;20026;-67
2021/06/24 05:51:00;;;;;;;9.10;6.57;;;20.40;99.90;;;;;;5013349;28;20498;-67
2021/06/24 05:53:26;;;;;;;8.70;5.97;;;20.50;99.90;;;;;;5013518;28;20448;-66
2021/06/24 05:55:52;;;;;;;11.68;6.80;;;20.50;99.90;;;;;;5013345;28;20479;-67
2021/06/24 05:58:29;;;;;;;8.75;6.53;;;20.60;99.90;;;;;;5013069;28;20042;-68
2021/06/24 06:00:56;;;;;;;9.35;6.70;;;20.80;99.90;;;;;;5013101;28;20037;-68
2021/06/24 06:03:23;;;;;;;13.82;7.53;;;20.70;99.90;;;;;;5015688;28;20026;-68
2021/06/24 06:05:50;;;;;;;11.55;6.00;;;20.70;99.90;;;;;;5013360;28;20049;-68
2021/06/24 06:08:17;;;;;;;10.73;6.45;;;20.80;99.90;;;;;;5012981;28;20029;-68
2021/06/24 06:10:43;;;;;;;12.85;7.13;;;20.90;99.90;;;;;;5013142;28;20036;-68
2021/06/24 06:13:10;;;;;;;9.43;6.57;;;20.80;99.90;;;;;;5013001;28;20030;-67
2021/06/24 06:15:39;;;;;;;8.30;6.40;;;20.70;99.90;;;;;;4995557;28;20562;-66
2021/06/24 06:18:24;;;;;;;13.45;7.57;;;20.60;99.90;;;;;;5020028;28;20480;-65
2021/06/24 06:20:51;;;;;;;10.85;6.70;;;20.70;99.90;;;;;;4996114;28;20380;-65
2021/06/24 06:23:21;;;;;;;8.73;6.47;;;20.80;99.90;;;;;;5012784;28;20076;-66
2021/06/24 06:25:48;;;;;;;9.23;6.63;;;20.90;99.90;;;;;;5013262;28;20119;-64
2021/06/24 06:28:16;;;;;;;7.80;5.43;;;20.90;99.90;;;;;;5013009;28;20034;-67
2021/06/24 06:30:43;;;;;;;8.88;5.68;;;20.80;99.90;;;;;;5012988;28;20030;-65
2021/06/24 06:33:09;;;;;;;8.10;5.95;;;20.90;99.90;;;;;;5012893;28;20034;-65
2021/06/24 06:35:36;;;;;;;7.05;5.32;;;20.90;99.90;;;;;;5012964;28;20087;-65
2021/06/24 06:38:03;;;;;;;11.23;6.07;;;20.90;99.90;;;;;;5012884;28;20033;-68
2021/06/24 06:40:29;;;;;;;8.57;5.80;;;20.80;99.90;;;;;;5012859;28;20030;-68
2021/06/24 06:42:58;;;;;;;10.52;6.93;;;20.70;99.90;;;;;;5012811;28;20161;-71
2021/06/24 06:45:27;;;;;;;8.38;5.95;;;20.60;99.90;;;;;;5013394;28;20041;-68
2021/06/24 06:47:54;;;;;;;10.45;6.95;;;20.40;99.90;;;;;;5012727;28;20030;-68
2021/06/24 06:50:20;;;;;;;11.85;7.80;;;19.80;99.90;;;;;;5012462;28;20041;-68
2021/06/24 06:52:46;;;;;;;16.95;8.20;;;19.80;99.90;;;;;;5012484;28;20042;-68
2021/06/24 06:55:13;;;;;;;9.63;7.20;;;19.80;99.90;;;;;;5012024;28;20034;-69
2021/06/24 06:57:39;;;;;;;11.10;7.43;;;19.80;99.90;;;;;;5014257;28;20045;-68
2021/06/24 07:00:10;;;;;;;14.02;7.95;;;19.80;99.90;;;;;;5015427;28;20030;-69
2021/06/24 07:02:38;;;;;;;13.38;7.80;;;19.80;99.90;;;;;;5012690;28;20088;-68
2021/06/24 07:05:07;;;;;;;11.13;7.90;;;19.80;99.90;;;;;;5012101;28;20573;-72
2021/06/24 07:07:33;;;;;;;10.05;7.57;;;19.80;99.90;;;;;;5012214;28;20038;-71
2021/06/24 07:09:59;;;;;;;13.95;7.93;;;19.70;99.90;;;;;;5012375;28;20526;-69
2021/06/24 07:12:25;;;;;;;17.45;12.43;;;19.60;99.90;;;;;;5012361;28;20030;-70
2021/06/24 07:14:51;;;;;;;14.55;11.77;;;19.40;99.90;;;;;;5012550;28;20493;-70
2021/06/24 07:17:16;;;;;;;12.02;8.70;;;19.20;99.90;;;;;;5011987;28;20034;-70
2021/06/24 07:19:42;;;;;;;11.77;9.00;;;19.30;99.90;;;;;;5012524;28;20054;-70
2021/06/24 07:22:08;;;;;;;10.07;7.90;;;19.30;99.90;;;;;;4994496;28;20038;-71
2021/06/24 07:24:34;;;;;;;11.65;7.97;;;19.30;99.90;;;;;;5012339;28;20030;-71
2021/06/24 07:26:59;;;;;;;9.73;7.93;;;19.20;99.90;;;;;;5012380;28;20660;-71
2021/06/24 07:29:25;;;;;;;10.88;8.40;;;19.20;99.90;;;;;;5024320;28;20068;-69
2021/06/24 07:31:51;;;;;;;11.75;8.70;;;19.20;99.90;;;;;;5035956;28;20549;-70
2021/06/24 07:34:17;;;;;;;11.70;8.45;;;19.20;99.90;;;;;;5034509;28;20072;-71
2021/06/24 07:36:45;;;;;;;9.85;7.97;;;19.10;99.90;;;;;;5036063;28;20037;-71
2021/06/24 07:39:12;;;;;;;10.63;7.22;;;19.20;99.90;;;;;;5035578;28;20045;-70
2021/06/24 07:41:38;;;;;;;10.45;7.93;;;19.40;99.90;;;;;;5035773;28;20124;-71
2021/06/24 07:44:04;;;;;;;9.88;7.75;;;19.30;99.90;;;;;;5035638;28;20048;-71
2021/06/24 07:46:31;;;;;;;11.50;7.70;;;19.20;99.90;;;;;;5035716;28;20034;-70
2021/06/24 07:48:57;;;;;;;13.30;8.13;;;19.10;99.90;;;;;;5035463;28;20030;-70
2021/06/24 07:51:23;;;;;;;12.55;7.55;;;19.40;99.90;;;;;;5035414;28;20033;-70
2021/06/24 07:53:49;;;;;;;9.68;7.43;;;19.50;99.90;;;;;;5035724;28;20032;-71
2021/06/24 07:56:15;;;;;;;11.73;7.78;;;19.50;99.90;;;;;;5034810;28;20112;-70
2021/06/24 07:58:41;;;;;;;10.48;8.25;;;19.40;99.90;;;;;;5035769;28;20041;-71
2021/06/24 08:01:08;;;;;;;11.43;8.13;;;19.40;99.90;;;;;;5035165;28;20430;-71
2021/06/24 08:03:35;;;;;;;10.82;7.80;;;19.60;99.90;;;;;;5031943;28;20073;-71
2021/06/24 08:06:04;;;;;;;13.93;9.05;;;19.80;99.90;;;;;;5035273;28;20426;-71
2021/06/24 08:08:30;;;;;;;14.38;7.97;;;20.00;99.90;;;;;;5017039;28;20033;-72
2021/06/24 08:10:56;;;;;;;10.73;7.63;;;20.10;99.90;;;;;;5034813;28;20421;-71
2021/06/24 08:13:27;;;;;;;10.48;7.85;;;20.10;99.90;;;;;;5033748;28;20112;-70
2021/06/24 08:15:54;;;;;;;8.00;6.00;;;20.20;99.90;;;;;;5020627;28;20088;-70
2021/06/24 08:18:20;;;;;;;10.38;6.53;;;20.40;99.90;;;;;;5023725;28;20105;-71
2021/06/24 08:20:48;;;;;;;9.32;6.78;;;20.70;99.90;;;;;;5034812;28;20037;-71
2021/06/24 08:23:15;;;;;;;6.78;5.90;;;20.90;99.90;;;;;;5017060;28;20037;-71
2021/06/24 08:25:41;;;;;;;7.88;5.88;;;20.90;99.90;;;;;;5035048;28;20025;-72
2021/06/24 08:28:07;;;;;;;7.20;5.90;;;20.70;99.90;;;;;;5034925;28;20025;-71
2021/06/24 08:30:37;;;;;;;7.70;6.10;;;20.90;99.90;;;;;;5035024;28;20044;-71
2021/06/24 08:33:03;;;;;;;9.57;6.22;;;21.00;99.90;;;;;;5017034;28;20083;-72
2021/06/24 08:35:29;;;;;;;10.40;6.97;;;21.20;99.90;;;;;;5034240;28;20033;-71
2021/06/24 08:37:55;;;;;;;10.32;6.00;;;21.00;99.90;;;;;;5034716;28;20083;-72
2021/06/24 08:40:22;;;;;;;12.32;6.72;;;21.30;99.90;;;;;;5033563;28;20091;-72
2021/06/24 08:42:48;;;;;;;10.30;6.07;;;21.20;99.90;;;;;;5034601;28;20032;-72
2021/06/24 08:45:15;;;;;;;7.57;6.00;;;21.40;99.90;;;;;;5016399;28;20033;-71
2021/06/24 08:47:49;;;;;;;8.48;5.03;;;21.30;99.90;;;;;;5033485;28;20033;-72
2021/06/24 08:50:16;;;;;;;7.35;6.00;;;21.40;99.90;;;;;;5033502;28;20098;-71
2021/06/24 08:52:48;;;;;;;10.40;6.53;;;21.20;99.90;;;;;;5033913;28;20031;-71
2021/06/24 08:55:19;;;;;;;7.90;5.47;;;20.90;99.90;;;;;;5032541;28;20034;-70
2021/06/24 08:57:45;;;;;;;6.82;5.88;;;21.10;99.90;;;;;;5034506;28;20123;-71
2021/06/24 09:00:12;;;;;;;9.15;5.88;;;21.00;99.90;;;;;;5034173;28;20034;-71
2021/06/24 09:02:46;;;;;;;10.27;6.22;;;21.20;99.90;;;;;;5034403;28;20112;-70
2021/06/24 09:05:14;;;;;;;8.07;5.82;;;21.30;99.90;;;;;;5033948;28;20068;-71
2021/06/24 09:07:47;;;;;;;8.65;6.22;;;21.30;99.90;;;;;;5034254;28;20029;-71
2021/06/24 09:10:13;;;;;;;7.97;5.85;;;21.30;99.90;;;;;;5034096;28;20060;-71
2021/06/24 09:12:56;;;;;;;9.48;6.15;;;21.10;99.90;;;;;;5034192;28;20478;-70
2021/06/24 09:15:36;;;;;;;11.15;6.65;;;21.30;99.90;;;;;;5032949;28;20033;-71
2021/06/24 09:18:02;;;;;;;8.48;6.65;;;21.30;99.90;;;;;;5032641;28;20060;-70
2021/06/24 09:20:33;;;;;;;8.85;6.90;;;21.10;99.90;;;;;;5033522;28;20037;-72
2021/06/24 09:23:17;;;;;;;11.48;5.57;;;21.10;99.90;;;;;;5034080;28;20025;-71
2021/06/24 09:26:11;;;;;;;10.88;7.30;;;21.50;99.90;;;;;;5033554;28;20041;-71
2021/06/24 09:28:52;;;;;;;8.23;6.38;;;21.70;99.90;;;;;;5016050;28;20035;-73
2021/06/24 09:31:34;;;;;;;11.32;6.20;;;21.90;99.90;;;;;;5033667;28;20109;-72
2021/06/24 09:34:09;;;;;;;11.05;5.88;;;22.00;99.90;;;;;;5016017;28;20159;-72
2021/06/24 09:36:59;;;;;;;8.27;5.30;;;22.10;99.90;;;;;;5034170;28;20064;-73
2021/06/24 09:39:44;;;;;;;8.98;5.90;;;22.10;99.90;;;;;;5029528;28;20033;-71
2021/06/24 09:42:13;;;;;;;9.00;6.40;;;22.10;99.90;;;;;;5023589;28;20065;-72
2021/06/24 09:44:43;;;;;;;6.75;5.40;;;22.10;99.90;;;;;;5011761;28;20033;-73
2021/06/24 09:47:23;;;;;;;7.55;5.78;;;22.00;99.90;;;;;;5033564;28;20120;-64
2021/06/24 09:50:09;;;;;;;7.75;5.03;;;22.10;99.90;;;;;;5033263;28;20091;-62
2021/06/24 09:52:36;;;;;;;7.88;5.97;;;22.10;99.90;;;;;;5033076;28;20033;-64
2021/06/24 09:55:14;;;;;;;9.68;5.95;;;22.00;99.90;;;;;;5033288;28;20025;-63
2021/06/24 09:57:40;;;;;;;10.20;6.70;;;21.90;99.90;;;;;;5033455;28;20033;-63
2021/06/24 10:00:33;;;;;;;8.82;6.78;;;22.00;99.90;;;;;;5028921;28;20105;-64
2021/06/24 10:03:12;;;;;;;11.18;7.05;;;21.80;99.90;;;;;;5033141;28;20083;-63
2021/06/24 10:05:43;;;;;;;12.00;7.40;;;21.60;99.90;;;;;;5032013;28;20053;-63
2021/06/24 10:08:09;;;;;;;8.32;5.95;;;21.60;99.90;;;;;;5033157;28;20037;-63
2021/06/24 10:10:37;;;;;;;10.65;7.38;;;21.50;99.90;;;;;;5032797;28;20029;-63
2021/06/24 10:13:05;;;;;;;11.23;7.55;;;21.40;99.90;;;;;;5033002;28;20057;-64
2021/06/24 10:15:32;;;;;;;18.67;8.63;;;21.20;99.90;;;;;;5031605;28;20033;-64
2021/06/24 10:17:58;;;;;;;9.80;6.57;;;21.30;99.90;;;;;;5032525;28;20064;-64
2021/06/24 10:20:29;;;;;;;9.98;6.93;;;21.30;99.90;;;;;;5032896;28;20068;-65
2021/06/24 10:23:10;;;;;;;8.77;5.90;;;21.40;99.90;;;;;;5032583;28;20088;-64
2021/06/24 10:25:41;;;;;;;8.85;6.22;;;21.40;99.90;;;;;;5031503;28;20036;-64
2021/06/24 10:28:09;;;;;;;8.13;5.57;;;21.60;99.90;;;;;;5031667;28;20037;-64
2021/06/24 10:30:42;;;;;;;9.50;7.07;;;21.90;99.90;;;;;;5031541;28;20120;-65
2021/06/24 10:33:16;;;;;;;8.77;6.65;;;21.80;99.90;;;;;;5032880;28;20048;-65
2021/06/24 10:35:52;;;;;;;7.15;5.85;;;21.80;99.90;;;;;;5032461;28;20035;-64
2021/06/24 10:38:20;;;;;;;9.30;5.43;;;22.10;99.90;;;;;;5031601;28;20478;-65
2021/06/24 10:41:02;;;;;;;8.98;6.22;;;22.30;99.90;;;;;;5031910;28;20227;-66
2021/06/24 10:43:45;;;;;;;8.40;5.80;;;22.20;99.90;;;;;;5012429;28;20037;-63
2021/06/24 10:46:15;;;;;;;9.13;7.32;;;22.30;99.90;;;;;;5012923;28;20037;-73
2021/06/24 10:48:41;;;;;;;7.47;5.70;;;21.50;99.90;;;;;;5011620;28;20482;-70
2021/06/24 10:51:09;;;;;;;6.88;6.03;;;21.60;99.90;;;;;;5012471;28;20034;-72
2021/06/24 10:53:50;;;;;;;8.00;5.60;;;21.60;99.90;;;;;;5012603;28;20030;-71
2021/06/24 10:56:40;;;;;;;8.20;5.65;;;21.60;99.90;;;;;;5012107;28;20092;-72
2021/06/24 10:59:28;;;;;;;6.63;5.22;;;21.60;99.90;;;;;;5012559;28;20044;-72
2021/06/24 11:02:08;;;;;;;9.75;5.45;;;21.80;99.90;;;;;;5021504;28;20504;-73
2021/06/24 11:04:40;;;;;;;7.22;5.30;;;21.70;99.90;;;;;;5029982;28;20049;-72
2021/06/24 11:07:16;;;;;;;8.98;4.63;;;22.00;99.90;;;;;;5031317;28;20033;-72
2021/06/24 11:10:16;;;;;;;7.60;4.88;;;22.00;99.90;;;;;;4994838;28;20044;-72
2021/06/24 11:13:04;;;;;;;4.47;3.30;;;22.10;99.90;;;;;;4995680;28;20383;-72
2021/06/24 11:15:44;;;;;;;3.25;2.40;;;21.80;99.90;;;;;;4994791;28;20057;-72
2021/06/24 11:18:30;;;;;;;3.53;2.13;;;21.60;99.90;;;;;;4995296;28;20065;-71
2021/06/24 11:21:04;;;;;;;3.03;1.98;;;21.50;99.90;;;;;;4997275;28;20088;-71
2021/06/24 11:23:53;;;;;;;2.72;1.63;;;21.20;99.90;;;;;;4995440;28;20061;-71
2021/06/24 11:26:30;;;;;;;2.40;1.70;;;21.50;99.90;;;;;;4995465;28;20511;-72
2021/06/24 11:29:09;;;;;;;3.70;2.00;;;21.20;99.90;;;;;;4994836;28;20042;-71
2021/06/24 11:32:07;;;;;;;2.97;1.80;;;21.50;99.90;;;;;;4978155;28;20066;-71
2021/06/24 11:35:04;;;;;;;3.15;2.00;;;21.50;99.90;;;;;;4996506;28;20101;-72
2021/06/24 11:37:33;;;;;;;3.67;1.83;;;21.60;99.90;;;;;;5012345;28;20040;-72
2021/06/24 11:40:08;;;;;;;3.30;1.92;;;22.20;99.90;;;;;;5015722;28;20117;-71
2021/06/24 11:42:42;;;;;;;3.85;1.98;;;22.10;99.90;;;;;;5029212;28;20107;-71
2021/06/24 11:45:15;;;;;;;4.63;1.70;;;21.90;99.90;;;;;;5019682;28;20034;-72
2021/06/24 11:47:46;;;;;;;2.67;1.52;;;21.90;99.90;;;;;;5021048;28;20112;-72
2021/06/24 12:04:33;;;;;;;3.53;2.13;;;22.70;99.90;;;;;;5030395;28;20123;-72
2021/06/24 12:07:06;;;;;;;3.60;1.80;;;22.20;99.90;;;;;;5031936;28;20105;-72
2021/06/24 12:09:51;;;;;;;3.28;1.95;;;22.60;99.90;;;;;;5030118;28;20175;-72
2021/06/24 12:12:22;;;;;;;4.15;1.80;;;22.80;99.90;;;;;;5030189;28;20065;-72
2021/06/24 12:14:51;;;;;;;3.85;1.63;;;22.60;99.90;;;;;;5031058;28;20125;-71
2021/06/24 12:17:27;;;;;;;2.75;1.98;;;23.30;99.90;;;;;;5034202;28;20064;-71
2021/06/24 12:20:23;;;;;;;5.50;1.70;;;23.10;99.90;;;;;;5035154;28;20037;-71
2021/06/24 12:23:02;;;;;;;3.10;2.33;;;23.70;99.90;;;;;;5033964;28;20496;-71
2021/06/24 12:25:34;;;;;;;3.70;2.05;;;22.60;99.90;;;;;;5034739;28;20038;-71
2021/06/24 12:28:06;;;;;;;2.83;1.60;;;22.90;99.90;;;;;;5033650;28;20053;-72
2021/06/24 12:30:41;;;;;;;2.67;1.80;;;23.20;99.90;;;;;;5033145;28;20037;-71
2021/06/24 12:33:11;;;;;;;1.95;1.35;;;23.40;99.90;;;;;;5016891;28;20037;-71
2021/06/24 12:35:50;;;;;;;4.72;3.15;;;23.70;99.90;;;;;;5034483;28;20128;-73
2021/06/24 12:38:23;;;;;;;2.63;1.67;;;23.60;99.90;;;;;;5033420;28;20036;-72
2021/06/24 12:41:07;;;;;;;3.30;1.80;;;23.70;99.90;;;;;;5033483;28;20435;-72
2021/06/24 12:43:34;;;;;;;5.40;2.10;;;24.00;99.90;;;;;;5016866;28;20036;-73
2021/06/24 12:46:04;;;;;;;3.58;1.90;;;23.00;99.90;;;;;;5034502;28;20051;-72
2021/06/24 12:48:38;;;;;;;2.65;1.70;;;23.40;99.90;;;;;;5033226;28;20087;-71
2021/06/24 12:51:18;;;;;;;2.28;1.58;;;24.20;99.90;;;;;;5034564;28;20204;-72
2021/06/24 12:53:48;;;;;;;2.72;1.50;;;24.30;99.90;;;;;;5034341;28;20359;-71
2021/06/24 12:56:20;;;;;;;;;;;24.20;99.90;;;;;;5034444;28;20030;-71
2021/06/24 12:58:47;;;;;;;2.70;1.80;;;23.40;99.90;;;;;;5034185;28;19924;-72
2021/06/24 13:01:19;;;;;;;2.50;1.67;;;23.80;99.90;;;;;;5049337;28;20482;-72
2021/06/24 13:03:56;;;;;;;3.30;2.40;;;23.70;99.90;;;;;;5032833;28;20056;-71
2021/06/24 13:06:32;;;;;;;3.90;2.22;;;24.10;99.90;;;;;;5033756;28;20640;-71
2021/06/24 13:09:04;;;;;;;3.55;2.25;;;24.10;99.90;;;;;;5034059;28;20410;-71